BEL5MQ EDDH-EBBR
Flight info
| Callsign | BEL5MQ |
|---|---|
| Flight time | N/A |
| Altitude | 36000 |
| Route | WSN5G/33 WSN N125 SILQI N872 LILSI/N0439F350 Z310 WOODY |
| Aircraft | A319/M-SDE3FGHIRWY/LB1 |
Departure
| Time | 2026-05-07 18:46 |
|---|---|
| Airport | Hamburg Helmut Schmidt Airport (EDDH) |
Arrival
| Time | N/A |
|---|---|
| Airport | Brussels Airport (EBBR) |
| Time | Latitude | Longitude | Altitude | Speed | Heading |
|---|---|---|---|---|---|
| 2026-05-07 18:02 | 53.63293 | 10.00357 | 42 ft | 0 kts | 87° |
| 2026-05-07 18:34 | 53.63293 | 10.00348 | 42 ft | 2 kts | 87° |
| 2026-05-07 18:34 | 53.63292 | 10.00323 | 41 ft | 2 kts | 87° |
| 2026-05-07 18:34 | 53.63291 | 10.00297 | 41 ft | 2 kts | 87° |
| 2026-05-07 18:34 | 53.63291 | 10.00272 | 40 ft | 2 kts | 87° |
| 2026-05-07 18:35 | 53.63291 | 10.00249 | 40 ft | 2 kts | 124° |
| 2026-05-07 18:35 | 53.63302 | 10.00235 | 39 ft | 0 kts | 169° |
| 2026-05-07 18:35 | 53.63308 | 10.00234 | 39 ft | 1 kts | 180° |
| 2026-05-07 18:35 | 53.63311 | 10.00234 | 39 ft | 0 kts | 176° |
| 2026-05-07 18:38 | 53.63304 | 10.00235 | 39 ft | 2 kts | 176° |
| 2026-05-07 18:38 | 53.63276 | 10.00239 | 39 ft | 5 kts | 175° |
| 2026-05-07 18:38 | 53.63226 | 10.00246 | 39 ft | 9 kts | 175° |
| 2026-05-07 18:38 | 53.63155 | 10.00253 | 38 ft | 10 kts | 177° |
| 2026-05-07 18:39 | 53.63081 | 10.00260 | 38 ft | 9 kts | 186° |
| 2026-05-07 18:39 | 53.63019 | 10.00209 | 38 ft | 10 kts | 213° |
| 2026-05-07 18:39 | 53.62950 | 10.00134 | 37 ft | 12 kts | 213° |
| 2026-05-07 18:39 | 53.62882 | 10.00057 | 36 ft | 10 kts | 222° |
| 2026-05-07 18:40 | 53.62848 | 9.99978 | 34 ft | 5 kts | 241° |
| 2026-05-07 18:40 | 53.62843 | 9.99961 | 34 ft | 0 kts | 242° |
| 2026-05-07 18:40 | 53.62843 | 9.99959 | 34 ft | 1 kts | 243° |
| 2026-05-07 18:41 | 53.62831 | 9.99916 | 33 ft | 6 kts | 244° |
| 2026-05-07 18:41 | 53.62807 | 9.99836 | 33 ft | 7 kts | 239° |
| 2026-05-07 18:41 | 53.62809 | 9.99800 | 32 ft | 3 kts | 321° |
| 2026-05-07 18:41 | 53.62829 | 9.99779 | 32 ft | 0 kts | 333° |
| 2026-05-07 18:45 | 53.62830 | 9.99778 | 31 ft | 2 kts | 334° |
| 2026-05-07 18:45 | 53.63076 | 9.99566 | 30 ft | 83 kts | 333° |
| 2026-05-07 18:45 | 53.63818 | 9.98921 | 47 ft | 153 kts | 334° |
| 2026-05-07 18:45 | 53.64807 | 9.98025 | 651 ft | 167 kts | 335° |
| 2026-05-07 18:46 | 53.65820 | 9.97133 | 1494 ft | 171 kts | 338° |
| 2026-05-07 18:46 | 53.66903 | 9.96233 | 2214 ft | 185 kts | 339° |
| 2026-05-07 18:46 | 53.68138 | 9.95253 | 2822 ft | 208 kts | 339° |
| 2026-05-07 18:46 | 53.69488 | 9.94174 | 3540 ft | 225 kts | 337° |
| 2026-05-07 18:47 | 53.70843 | 9.92804 | 4386 ft | 240 kts | 320° |
| 2026-05-07 18:47 | 53.71739 | 9.90344 | 5087 ft | 263 kts | 284° |
| 2026-05-07 18:47 | 53.71652 | 9.87204 | 5861 ft | 279 kts | 251° |
| 2026-05-07 18:47 | 53.70811 | 9.84238 | 6832 ft | 285 kts | 243° |
| 2026-05-07 18:48 | 53.69967 | 9.81226 | 7856 ft | 289 kts | 248° |
| 2026-05-07 18:48 | 53.69261 | 9.78106 | 8838 ft | 289 kts | 251° |
| 2026-05-07 18:48 | 53.68601 | 9.74898 | 9760 ft | 294 kts | 252° |
| 2026-05-07 18:48 | 53.67956 | 9.71624 | 10740 ft | 298 kts | 252° |
| 2026-05-07 18:49 | 53.67303 | 9.68273 | 11349 ft | 315 kts | 252° |
| 2026-05-07 18:49 | 53.66595 | 9.64710 | 12105 ft | 327 kts | 252° |
| 2026-05-07 18:49 | 53.65872 | 9.61101 | 12989 ft | 331 kts | 251° |
| 2026-05-07 18:49 | 53.64951 | 9.57563 | 13908 ft | 334 kts | 242° |
| 2026-05-07 18:50 | 53.63711 | 9.54252 | 14791 ft | 337 kts | 235° |
| 2026-05-07 18:50 | 53.62322 | 9.51047 | 15598 ft | 342 kts | 234° |
| 2026-05-07 18:50 | 53.60924 | 9.47831 | 16388 ft | 345 kts | 235° |
| 2026-05-07 18:50 | 53.59504 | 9.44548 | 17173 ft | 349 kts | 235° |
| 2026-05-07 18:51 | 53.58081 | 9.41245 | 17937 ft | 352 kts | 235° |
| 2026-05-07 18:51 | 53.56643 | 9.37907 | 18682 ft | 356 kts | 235° |
| 2026-05-07 18:51 | 53.55192 | 9.34539 | 19400 ft | 359 kts | 234° |
| 2026-05-07 18:51 | 53.53737 | 9.31158 | 20090 ft | 363 kts | 234° |
| 2026-05-07 18:52 | 53.52265 | 9.27744 | 20764 ft | 366 kts | 234° |
| 2026-05-07 18:52 | 53.50757 | 9.24258 | 21429 ft | 370 kts | 234° |
| 2026-05-07 18:52 | 53.49252 | 9.20786 | 22083 ft | 374 kts | 234° |
| 2026-05-07 18:52 | 53.47716 | 9.17248 | 22721 ft | 377 kts | 234° |
| 2026-05-07 18:53 | 53.46172 | 9.13695 | 23329 ft | 381 kts | 234° |
| 2026-05-07 18:53 | 53.44616 | 9.10115 | 23945 ft | 384 kts | 234° |
| 2026-05-07 18:53 | 53.43033 | 9.06482 | 24544 ft | 387 kts | 234° |
| 2026-05-07 18:53 | 53.41443 | 9.02835 | 25081 ft | 392 kts | 234° |
| 2026-05-07 18:54 | 53.39827 | 8.99136 | 25634 ft | 395 kts | 235° |
| 2026-05-07 18:54 | 53.38222 | 8.95472 | 26186 ft | 398 kts | 235° |
| 2026-05-07 18:54 | 53.36582 | 8.91690 | 26749 ft | 400 kts | 237° |
| 2026-05-07 18:54 | 53.35111 | 8.87750 | 27286 ft | 402 kts | 242° |
| 2026-05-07 18:55 | 53.33881 | 8.83607 | 27811 ft | 403 kts | 248° |
| 2026-05-07 18:55 | 53.32853 | 8.79233 | 28320 ft | 405 kts | 250° |
| 2026-05-07 18:55 | 53.31893 | 8.74829 | 28803 ft | 407 kts | 251° |
| 2026-05-07 18:55 | 53.30919 | 8.70351 | 29284 ft | 410 kts | 250° |
| 2026-05-07 18:56 | 53.29944 | 8.65908 | 29747 ft | 412 kts | 250° |
| 2026-05-07 18:56 | 53.28957 | 8.61404 | 30203 ft | 414 kts | 250° |
| 2026-05-07 18:56 | 53.27966 | 8.56875 | 30619 ft | 417 kts | 251° |
| 2026-05-07 18:56 | 53.26983 | 8.52386 | 31006 ft | 419 kts | 251° |
| 2026-05-07 18:57 | 53.26038 | 8.47772 | 31378 ft | 422 kts | 253° |
| 2026-05-07 18:57 | 53.25155 | 8.43099 | 31757 ft | 423 kts | 253° |
| 2026-05-07 18:57 | 53.24278 | 8.38436 | 32233 ft | 423 kts | 253° |
| 2026-05-07 18:57 | 53.23404 | 8.33789 | 32697 ft | 422 kts | 252° |
| 2026-05-07 18:58 | 53.22537 | 8.29184 | 33136 ft | 421 kts | 252° |
| 2026-05-07 18:58 | 53.21663 | 8.24554 | 33550 ft | 421 kts | 251° |
| 2026-05-07 18:58 | 53.20779 | 8.19903 | 33956 ft | 421 kts | 251° |
| 2026-05-07 18:58 | 53.19886 | 8.15222 | 34357 ft | 421 kts | 251° |
| 2026-05-07 18:59 | 53.19011 | 8.10641 | 34694 ft | 422 kts | 251° |
| 2026-05-07 18:59 | 53.18127 | 8.05971 | 34958 ft | 424 kts | 252° |
| 2026-05-07 18:59 | 53.17246 | 8.01294 | 35209 ft | 426 kts | 252° |
| 2026-05-07 18:59 | 53.16352 | 7.96560 | 35465 ft | 427 kts | 251° |
| 2026-05-07 19:00 | 53.15461 | 7.91849 | 35709 ft | 428 kts | 251° |
| 2026-05-07 19:00 | 53.14574 | 7.87177 | 35938 ft | 429 kts | 252° |
| 2026-05-07 19:00 | 53.13672 | 7.82444 | 36059 ft | 430 kts | 252° |
| 2026-05-07 19:01 | 53.11866 | 7.72989 | 36074 ft | 434 kts | 252° |
| 2026-05-07 19:01 | 53.10054 | 7.63558 | 36076 ft | 429 kts | 251° |
| 2026-05-07 19:02 | 53.08217 | 7.54087 | 36075 ft | 430 kts | 252° |
| 2026-05-07 19:02 | 53.06397 | 7.44728 | 36081 ft | 430 kts | 252° |
| 2026-05-07 19:03 | 53.04547 | 7.35241 | 36081 ft | 430 kts | 252° |
| 2026-05-07 19:03 | 53.02711 | 7.25867 | 36075 ft | 430 kts | 251° |
| 2026-05-07 19:04 | 53.00847 | 7.16482 | 36082 ft | 430 kts | 250° |
| 2026-05-07 19:04 | 52.98925 | 7.07050 | 36077 ft | 430 kts | 250° |
| 2026-05-07 19:05 | 52.97014 | 6.97709 | 36074 ft | 430 kts | 250° |
| 2026-05-07 19:05 | 52.95092 | 6.88337 | 36073 ft | 430 kts | 251° |
| 2026-05-07 19:06 | 52.93175 | 6.79028 | 36071 ft | 430 kts | 250° |
| 2026-05-07 19:06 | 52.90275 | 6.65024 | 36070 ft | 430 kts | 250° |
| 2026-05-07 19:07 | 52.88309 | 6.55689 | 36071 ft | 431 kts | 250° |
| 2026-05-07 19:07 | 52.86340 | 6.46343 | 36071 ft | 431 kts | 250° |
| 2026-05-07 19:08 | 52.84380 | 6.37026 | 36071 ft | 430 kts | 250° |
| 2026-05-07 19:08 | 52.82420 | 6.27758 | 36072 ft | 430 kts | 250° |
| 2026-05-07 19:09 | 52.80139 | 6.18670 | 36069 ft | 429 kts | 240° |
| 2026-05-07 19:09 | 52.76567 | 6.10902 | 36073 ft | 428 kts | 224° |
| 2026-05-07 19:10 | 52.72019 | 6.04608 | 36075 ft | 428 kts | 218° |
| 2026-05-07 19:10 | 52.67371 | 5.98548 | 36075 ft | 428 kts | 218° |
| 2026-05-07 19:11 | 52.62720 | 5.92461 | 36076 ft | 427 kts | 218° |
| 2026-05-07 19:11 | 52.58108 | 5.86387 | 36077 ft | 427 kts | 218° |
| 2026-05-07 19:12 | 52.53502 | 5.80331 | 36073 ft | 427 kts | 219° |
| 2026-05-07 19:12 | 52.48870 | 5.74251 | 35809 ft | 426 kts | 219° |
| 2026-05-07 19:13 | 52.46577 | 5.71247 | 35541 ft | 424 kts | 219° |
| 2026-05-07 19:13 | 52.44294 | 5.68258 | 35156 ft | 422 kts | 218° |
| 2026-05-07 19:13 | 52.41998 | 5.65255 | 34649 ft | 422 kts | 218° |
| 2026-05-07 19:13 | 52.39728 | 5.62296 | 34046 ft | 423 kts | 218° |
| 2026-05-07 19:14 | 52.37397 | 5.59266 | 33404 ft | 424 kts | 219° |
| 2026-05-07 19:14 | 52.35107 | 5.56298 | 32754 ft | 425 kts | 218° |
| 2026-05-07 19:14 | 52.32791 | 5.53317 | 32080 ft | 426 kts | 218° |
| 2026-05-07 19:14 | 52.30479 | 5.50348 | 31397 ft | 427 kts | 219° |
| 2026-05-07 19:15 | 52.28149 | 5.47362 | 30863 ft | 423 kts | 219° |
| 2026-05-07 19:15 | 52.25850 | 5.44417 | 30368 ft | 417 kts | 219° |
| 2026-05-07 19:15 | 52.23596 | 5.41537 | 29886 ft | 411 kts | 219° |
| 2026-05-07 19:15 | 52.21386 | 5.38716 | 29422 ft | 406 kts | 219° |
| 2026-05-07 19:16 | 52.19184 | 5.35905 | 28952 ft | 400 kts | 219° |
| 2026-05-07 19:16 | 52.17019 | 5.33136 | 28489 ft | 395 kts | 218° |
| 2026-05-07 19:16 | 52.14873 | 5.30384 | 28028 ft | 390 kts | 218° |
| 2026-05-07 19:16 | 52.12759 | 5.27684 | 27577 ft | 385 kts | 218° |
| 2026-05-07 19:17 | 52.10679 | 5.25037 | 27180 ft | 379 kts | 218° |
| 2026-05-07 19:17 | 52.08586 | 5.22380 | 26830 ft | 386 kts | 218° |
| 2026-05-07 19:17 | 52.06450 | 5.19672 | 26483 ft | 387 kts | 218° |
| 2026-05-07 19:17 | 52.04353 | 5.17019 | 26152 ft | 386 kts | 218° |
| 2026-05-07 19:18 | 52.02243 | 5.14350 | 25823 ft | 385 kts | 218° |
| 2026-05-07 19:18 | 52.00147 | 5.11705 | 25495 ft | 383 kts | 219° |
| 2026-05-07 19:18 | 51.98048 | 5.09058 | 25168 ft | 381 kts | 219° |
| 2026-05-07 19:18 | 51.95946 | 5.06410 | 24846 ft | 380 kts | 219° |
| 2026-05-07 19:19 | 51.93894 | 5.03830 | 24531 ft | 378 kts | 219° |
| 2026-05-07 19:19 | 51.91816 | 5.01222 | 24215 ft | 377 kts | 219° |
| 2026-05-07 19:19 | 51.89755 | 4.98637 | 23902 ft | 375 kts | 219° |
| 2026-05-07 19:19 | 51.87688 | 4.96060 | 23594 ft | 373 kts | 218° |
| 2026-05-07 19:20 | 51.85640 | 4.93511 | 23287 ft | 371 kts | 218° |
| 2026-05-07 19:20 | 51.83624 | 4.91001 | 22981 ft | 369 kts | 218° |
| 2026-05-07 19:20 | 51.81592 | 4.88468 | 22674 ft | 368 kts | 219° |
| 2026-05-07 19:20 | 51.79563 | 4.85939 | 22368 ft | 366 kts | 219° |
| 2026-05-07 19:21 | 51.77558 | 4.83441 | 22063 ft | 365 kts | 219° |
| 2026-05-07 19:21 | 51.75575 | 4.80971 | 21762 ft | 363 kts | 219° |
| 2026-05-07 19:21 | 51.73578 | 4.78485 | 21460 ft | 362 kts | 219° |
| 2026-05-07 19:21 | 51.71600 | 4.76025 | 21160 ft | 360 kts | 219° |
| 2026-05-07 19:22 | 51.69627 | 4.73572 | 20863 ft | 359 kts | 219° |
| 2026-05-07 19:22 | 51.67666 | 4.71140 | 20540 ft | 358 kts | 219° |
| 2026-05-07 19:22 | 51.65686 | 4.68689 | 20148 ft | 356 kts | 219° |
| 2026-05-07 19:22 | 51.63746 | 4.66289 | 19753 ft | 353 kts | 218° |
| 2026-05-07 19:23 | 51.61831 | 4.63882 | 19322 ft | 351 kts | 219° |
| 2026-05-07 19:23 | 51.59922 | 4.61431 | 18912 ft | 348 kts | 220° |
| 2026-05-07 19:23 | 51.58054 | 4.59024 | 18500 ft | 346 kts | 219° |
| 2026-05-07 19:23 | 51.56176 | 4.56607 | 18086 ft | 343 kts | 219° |
| 2026-05-07 19:24 | 51.54344 | 4.54254 | 17661 ft | 341 kts | 219° |
| 2026-05-07 19:24 | 51.52488 | 4.51874 | 17252 ft | 338 kts | 219° |
| 2026-05-07 19:24 | 51.50673 | 4.49548 | 16836 ft | 336 kts | 219° |
| 2026-05-07 19:24 | 51.48858 | 4.47226 | 16422 ft | 333 kts | 219° |
| 2026-05-07 19:25 | 51.47066 | 4.44937 | 16027 ft | 331 kts | 219° |
| 2026-05-07 19:25 | 51.45258 | 4.42631 | 15622 ft | 329 kts | 219° |
| 2026-05-07 19:25 | 51.43485 | 4.40374 | 15224 ft | 328 kts | 219° |
| 2026-05-07 19:25 | 51.41682 | 4.38145 | 14863 ft | 329 kts | 216° |
| 2026-05-07 19:26 | 51.39766 | 4.36182 | 14772 ft | 330 kts | 211° |
| 2026-05-07 19:26 | 51.37701 | 4.34475 | 14797 ft | 332 kts | 206° |
| 2026-05-07 19:26 | 51.35627 | 4.32877 | 14821 ft | 332 kts | 206° |
| 2026-05-07 19:26 | 51.33546 | 4.31289 | 14841 ft | 332 kts | 206° |
| 2026-05-07 19:27 | 51.31466 | 4.29706 | 14864 ft | 332 kts | 206° |
| 2026-05-07 19:27 | 51.29388 | 4.28128 | 14888 ft | 332 kts | 206° |
| 2026-05-07 19:27 | 51.27314 | 4.26553 | 14910 ft | 332 kts | 206° |